Time;durP1;ratioP1;P1;durP2;ratioP2;P2;SDS_P1;SDS_P2;PMS_P1;PMS_P2;Temp;Humidity;BMP_temperature;BMP_pressure;BME280_temperature;BME280_humidity;BME280_pressure;Samples;Min_cycle;Max_cycle;Signal;HPM_P1;HPM_P2
2023/12/22 00:00:08;;;;;;;11.77;2.70;;;6.30;1.00;;;;;;5062181;28;21688;-75
2023/12/22 00:02:37;;;;;;;12.07;2.72;;;6.40;1.00;;;;;;5053205;28;20265;-76
2023/12/22 00:05:08;;;;;;;8.10;2.50;;;6.50;1.00;;;;;;5059820;28;20220;-76
2023/12/22 00:07:37;;;;;;;9.33;2.17;;;6.50;1.00;;;;;;5056194;28;20308;-75
2023/12/22 00:10:06;;;;;;;13.87;3.33;;;6.50;1.00;;;;;;5078378;28;20599;-77
2023/12/22 00:12:34;;;;;;;14.80;2.47;;;6.50;1.00;;;;;;5060671;28;20224;-79
2023/12/22 00:15:03;;;;;;;11.53;2.40;;;6.50;1.00;;;;;;5064395;28;20251;-77
2023/12/22 00:17:32;;;;;;;10.20;2.50;;;6.40;1.00;;;;;;5061390;28;20223;-77
2023/12/22 00:20:02;;;;;;;11.33;2.60;;;6.50;1.00;;;;;;5059266;28;20222;-76
2023/12/22 00:22:34;;;;;;;10.73;2.63;;;6.50;1.00;;;;;;5061924;28;20224;-79
2023/12/22 00:25:02;;;;;;;11.13;2.63;;;6.40;1.00;;;;;;5062577;28;20240;-77
2023/12/22 00:27:31;;;;;;;9.83;2.53;;;6.40;1.00;;;;;;5058522;28;20773;-76
2023/12/22 00:30:00;;;;;;;11.83;2.73;;;6.40;1.00;;;;;;5058538;28;20323;-78
2023/12/22 00:32:28;;;;;;;11.70;2.37;;;6.30;1.00;;;;;;5060899;28;20227;-77
2023/12/22 00:34:58;;;;;;;9.40;2.10;;;6.40;1.00;;;;;;5062839;28;20250;-77
2023/12/22 00:37:26;;;;;;;11.57;2.60;;;6.30;1.00;;;;;;5061825;28;20570;-78
2023/12/22 00:39:56;;;;;;;9.23;2.60;;;6.30;1.00;;;;;;5062023;28;20227;-76
2023/12/22 00:42:26;;;;;;;8.80;2.23;;;6.30;1.00;;;;;;5066299;28;20228;-76
2023/12/22 00:44:55;;;;;;;10.10;3.03;;;6.40;1.00;;;;;;5062910;28;20232;-76
2023/12/22 00:47:23;;;;;;;7.57;2.40;;;6.30;1.00;;;;;;5059068;28;20220;-76
2023/12/22 00:49:52;;;;;;;7.73;2.60;;;6.30;1.00;;;;;;5065816;28;20220;-76
2023/12/22 00:52:20;;;;;;;10.37;2.63;;;6.30;1.00;;;;;;5051786;28;20227;-77
2023/12/22 00:54:49;;;;;;;9.33;2.40;;;6.20;1.00;;;;;;5061361;28;21022;-76
2023/12/22 00:57:19;;;;;;;13.77;2.47;;;6.20;1.00;;;;;;5058507;28;20701;-76
2023/12/22 00:59:48;;;;;;;13.13;2.60;;;6.20;1.00;;;;;;5057664;28;20707;-76
2023/12/22 01:02:17;;;;;;;16.43;3.20;;;6.20;1.00;;;;;;5061239;28;20331;-78
2023/12/22 01:04:45;;;;;;;10.73;2.63;;;6.10;1.00;;;;;;5060606;28;20220;-76
2023/12/22 01:07:14;;;;;;;10.07;2.23;;;6.20;1.00;;;;;;5058005;28;20221;-75
2023/12/22 01:09:44;;;;;;;9.13;2.43;;;6.20;1.00;;;;;;5051635;28;20315;-76
2023/12/22 01:12:12;;;;;;;12.00;2.70;;;6.20;1.00;;;;;;5059160;28;20231;-76
2023/12/22 01:14:45;;;;;;;10.77;2.50;;;6.20;1.00;;;;;;5058257;28;20227;-75
2023/12/22 01:17:13;;;;;;;8.67;2.40;;;6.10;1.00;;;;;;5061106;28;20239;-76
2023/12/22 01:19:42;;;;;;;12.63;2.60;;;6.10;1.00;;;;;;5065406;28;20212;-76
2023/12/22 01:22:10;;;;;;;9.03;2.70;;;6.10;1.00;;;;;;5063936;28;20232;-76
2023/12/22 01:24:42;;;;;;;12.63;3.23;;;6.10;1.00;;;;;;5061875;28;20229;-76
2023/12/22 01:27:11;;;;;;;9.00;2.90;;;6.10;1.00;;;;;;5061539;28;20687;-76
2023/12/22 01:29:39;;;;;;;12.23;2.87;;;6.10;1.00;;;;;;5059599;28;20293;-76
2023/12/22 01:32:09;;;;;;;13.37;2.57;;;6.00;1.00;;;;;;5072434;28;20325;-76
2023/12/22 01:34:38;;;;;;;17.90;3.00;;;6.10;1.00;;;;;;5066356;28;20290;-76
2023/12/22 01:37:06;;;;;;;10.13;2.83;;;6.10;1.00;;;;;;5058805;28;20875;-76
2023/12/22 01:39:35;;;;;;;13.37;2.90;;;6.10;1.00;;;;;;5077148;28;20221;-76
2023/12/22 01:42:04;;;;;;;13.80;3.03;;;6.10;1.00;;;;;;5059897;28;20297;-76
2023/12/22 01:44:32;;;;;;;15.07;3.30;;;6.10;1.00;;;;;;5065718;28;20224;-79
2023/12/22 01:47:01;;;;;;;13.47;2.93;;;6.10;1.00;;;;;;5063496;28;20251;-78
2023/12/22 01:49:31;;;;;;;16.07;3.13;;;6.00;1.00;;;;;;5060073;28;20235;-77
2023/12/22 01:52:00;;;;;;;13.00;2.90;;;6.10;1.00;;;;;;5057505;28;20309;-77
2023/12/22 01:54:29;;;;;;;12.73;3.00;;;6.00;1.00;;;;;;5063951;28;20318;-76
2023/12/22 01:56:58;;;;;;;15.70;3.00;;;6.10;1.00;;;;;;5065957;28;20950;-78
2023/12/22 01:59:26;;;;;;;11.57;3.07;;;6.10;1.00;;;;;;5061020;28;20247;-76
2023/12/22 02:01:55;;;;;;;16.57;3.27;;;6.00;1.00;;;;;;5063956;28;20316;-77
2023/12/22 02:04:25;;;;;;;13.73;3.27;;;6.00;1.00;;;;;;5062443;28;20298;-75
2023/12/22 02:06:55;;;;;;;14.33;3.10;;;6.10;1.00;;;;;;5064674;28;20228;-76
2023/12/22 02:09:24;;;;;;;14.87;3.27;;;6.10;1.00;;;;;;5063541;28;20224;-77
2023/12/22 02:11:52;;;;;;;10.87;2.80;;;6.00;1.00;;;;;;5070128;28;20232;-78
2023/12/22 02:14:21;;;;;;;14.30;3.13;;;6.00;1.00;;;;;;5057406;28;20283;-77
2023/12/22 02:16:56;;;;;;;12.30;3.13;;;6.00;1.00;;;;;;5064985;28;20229;-78
2023/12/22 02:19:38;;;;;;;8.97;3.00;;;6.00;1.00;;;;;;5062908;28;20246;-77
2023/12/22 02:22:09;;;;;;;10.30;3.50;;;6.00;1.00;;;;;;5056846;28;20269;-78
2023/12/22 02:24:38;;;;;;;15.43;3.30;;;6.10;1.00;;;;;;5062812;28;20253;-78
2023/12/22 02:27:16;;;;;;;14.07;3.60;;;6.10;1.00;;;;;;5062173;28;20224;-80
2023/12/22 02:29:50;;;;;;;17.70;3.33;;;6.20;1.00;;;;;;5062160;28;20219;-78
2023/12/22 02:32:24;;;;;;;11.33;2.83;;;6.20;1.00;;;;;;5071633;28;20259;-76
2023/12/22 02:34:54;;;;;;;14.03;3.20;;;6.20;1.00;;;;;;5063005;28;20238;-74
2023/12/22 02:37:24;;;;;;;14.37;3.30;;;6.20;1.00;;;;;;5065648;28;20232;-74
2023/12/22 02:39:54;;;;;;;12.37;3.07;;;6.30;1.00;;;;;;5077300;28;20220;-76
2023/12/22 02:42:29;;;;;;;12.03;2.97;;;6.30;1.00;;;;;;5058916;28;20217;-75
2023/12/22 02:44:58;;;;;;;10.67;2.83;;;6.20;1.00;;;;;;5056829;28;20730;-76
2023/12/22 02:47:27;;;;;;;15.77;3.40;;;6.20;1.00;;;;;;5061624;28;20236;-81
2023/12/22 02:49:57;;;;;;;18.40;3.47;;;6.20;1.00;;;;;;5067391;28;20221;-75
2023/12/22 02:52:26;;;;;;;14.10;2.93;;;6.20;1.00;;;;;;5059727;28;20232;-77
2023/12/22 02:54:56;;;;;;;13.17;2.90;;;6.10;1.00;;;;;;5062794;28;20278;-76
2023/12/22 02:57:25;;;;;;;14.53;2.87;;;6.10;1.00;;;;;;5060380;28;20241;-76
2023/12/22 02:59:53;;;;;;;12.60;3.00;;;6.20;1.00;;;;;;5062905;28;20219;-77
2023/12/22 03:02:22;;;;;;;9.53;2.77;;;6.10;1.00;;;;;;5061980;28;20243;-76
2023/12/22 03:04:50;;;;;;;10.53;3.23;;;6.10;1.00;;;;;;5056928;28;20278;-77
2023/12/22 03:07:18;;;;;;;15.00;3.40;;;6.20;1.00;;;;;;5060764;28;20972;-81
2023/12/22 03:09:47;;;;;;;12.13;2.80;;;6.20;1.00;;;;;;5059757;28;20220;-78
2023/12/22 03:12:17;;;;;;;11.50;2.80;;;6.10;1.00;;;;;;5060736;28;20313;-78
2023/12/22 03:14:45;;;;;;;15.73;2.97;;;6.10;1.00;;;;;;5061529;28;20223;-77
2023/12/22 03:17:14;;;;;;;11.63;2.90;;;6.10;1.00;;;;;;5051827;28;20305;-78
2023/12/22 03:19:43;;;;;;;13.57;2.93;;;6.10;1.00;;;;;;5058318;28;20230;-78
2023/12/22 03:22:13;;;;;;;14.23;2.90;;;6.00;1.00;;;;;;5064866;28;20260;-78
2023/12/22 03:24:42;;;;;;;12.63;2.60;;;5.90;1.00;;;;;;5062459;28;20785;-79
2023/12/22 03:27:11;;;;;;;12.63;3.10;;;5.80;1.00;;;;;;5056331;28;20738;-78
2023/12/22 03:29:41;;;;;;;19.53;3.83;;;5.80;1.00;;;;;;5060362;28;20251;-80
2023/12/22 03:32:09;;;;;;;15.70;3.67;;;5.80;1.00;;;;;;5060376;28;20974;-76
2023/12/22 03:34:38;;;;;;;16.10;3.67;;;5.80;1.00;;;;;;5058339;28;20227;-79
2023/12/22 03:37:06;;;;;;;15.40;3.73;;;5.80;1.00;;;;;;5061296;28;20232;-80
2023/12/22 03:39:35;;;;;;;10.87;3.33;;;5.90;1.00;;;;;;5055658;28;20223;-80
2023/12/22 03:42:04;;;;;;;16.67;3.30;;;5.80;1.00;;;;;;5060144;28;20220;-81
2023/12/22 03:44:33;;;;;;;11.97;3.50;;;5.80;1.00;;;;;;5057645;28;20229;-79
2023/12/22 03:47:03;;;;;;;12.17;3.20;;;5.80;1.00;;;;;;5060786;28;20218;-78
2023/12/22 03:49:31;;;;;;;13.00;3.47;;;5.80;1.00;;;;;;5054711;28;20231;-78
2023/12/22 03:52:00;;;;;;;19.17;3.53;;;5.80;1.00;;;;;;5062863;28;20307;-78
2023/12/22 03:54:28;;;;;;;11.70;3.00;;;5.80;1.00;;;;;;5059067;28;20238;-78
2023/12/22 03:56:57;;;;;;;15.60;3.13;;;5.80;1.00;;;;;;5056380;28;20224;-75
2023/12/22 03:59:26;;;;;;;13.07;3.10;;;5.80;1.00;;;;;;5057361;28;20244;-77
2023/12/22 04:01:57;;;;;;;12.67;3.50;;;5.80;1.00;;;;;;5061334;28;20297;-74
2023/12/22 04:04:28;;;;;;;17.53;3.57;;;5.80;1.00;;;;;;5063302;28;20242;-76
2023/12/22 04:06:56;;;;;;;13.20;3.63;;;5.80;1.00;;;;;;5062559;28;20240;-75
2023/12/22 04:09:25;;;;;;;10.60;2.90;;;5.80;1.00;;;;;;5053386;28;20333;-78
2023/12/22 04:11:53;;;;;;;15.53;3.20;;;5.80;1.00;;;;;;5058536;28;20246;-77
2023/12/22 04:14:22;;;;;;;12.90;3.23;;;5.80;1.00;;;;;;5058580;28;20305;-79
2023/12/22 04:16:52;;;;;;;11.17;3.23;;;5.80;1.00;;;;;;5058666;28;20246;-76
2023/12/22 04:19:22;;;;;;;13.37;3.23;;;5.80;1.00;;;;;;5053223;28;21005;-76
2023/12/22 04:21:52;;;;;;;13.87;3.07;;;5.80;1.00;;;;;;5054929;28;20235;-77
2023/12/22 04:24:20;;;;;;;10.73;3.37;;;5.80;1.00;;;;;;5051533;28;20221;-77
2023/12/22 04:26:49;;;;;;;14.57;3.43;;;5.70;1.00;;;;;;5059864;28;20781;-76
2023/12/22 04:29:17;;;;;;;13.97;3.90;;;5.80;1.00;;;;;;5059405;28;20228;-78
2023/12/22 04:31:46;;;;;;;11.97;2.90;;;5.80;1.00;;;;;;5055791;28;20224;-77
2023/12/22 04:34:15;;;;;;;17.67;3.93;;;5.80;1.00;;;;;;5057163;28;20235;-77
2023/12/22 04:36:46;;;;;;;16.03;3.50;;;5.70;1.00;;;;;;5059951;28;20233;-77
2023/12/22 04:39:16;;;;;;;12.10;2.77;;;5.70;1.00;;;;;;5059874;28;20243;-77
2023/12/22 04:41:45;;;;;;;13.87;3.20;;;5.80;1.00;;;;;;5058014;28;20229;-76
2023/12/22 04:44:13;;;;;;;10.90;3.40;;;5.80;1.00;;;;;;5060302;28;20215;-76
2023/12/22 04:46:41;;;;;;;11.40;3.20;;;5.80;1.00;;;;;;5063899;28;20932;-76
2023/12/22 04:49:10;;;;;;;11.63;3.10;;;5.70;1.00;;;;;;5055740;28;20858;-76
2023/12/22 04:51:39;;;;;;;13.07;2.93;;;5.70;1.00;;;;;;5056732;28;20216;-78
2023/12/22 04:54:07;;;;;;;15.97;3.17;;;5.80;1.00;;;;;;5089187;28;21467;-77
2023/12/22 04:56:37;;;;;;;14.63;3.40;;;5.70;1.00;;;;;;5056310;28;20222;-77
2023/12/22 04:59:05;;;;;;;13.20;2.97;;;5.60;1.00;;;;;;5054494;28;20280;-77
2023/12/22 05:01:34;;;;;;;14.53;3.10;;;5.60;1.00;;;;;;5055428;28;20276;-79
2023/12/22 05:04:03;;;;;;;14.33;3.20;;;5.60;1.00;;;;;;5056323;28;20248;-79
2023/12/22 05:06:31;;;;;;;12.87;3.50;;;5.60;1.00;;;;;;5061134;28;20317;-77
2023/12/22 05:09:01;;;;;;;13.43;2.83;;;5.50;1.00;;;;;;5060260;28;20301;-77
2023/12/22 05:11:29;;;;;;;11.17;3.10;;;5.40;1.00;;;;;;5056532;28;20217;-76
2023/12/22 05:13:59;;;;;;;12.17;3.23;;;5.30;1.00;;;;;;5057271;28;20300;-77
2023/12/22 05:16:31;;;;;;;13.57;3.37;;;5.30;1.00;;;;;;5058210;28;20220;-78
2023/12/22 05:19:00;;;;;;;15.77;3.30;;;5.40;1.00;;;;;;5058900;28;20226;-77
2023/12/22 05:21:29;;;;;;;12.43;3.53;;;5.30;1.00;;;;;;5059817;28;20236;-77
2023/12/22 05:23:58;;;;;;;11.43;2.97;;;5.40;1.00;;;;;;5057230;28;20227;-77
2023/12/22 05:26:29;;;;;;;10.70;2.90;;;5.30;1.00;;;;;;5060583;28;20315;-76
2023/12/22 05:29:00;;;;;;;14.23;3.30;;;5.30;1.00;;;;;;5062015;28;20228;-76
2023/12/22 05:31:28;;;;;;;15.27;3.20;;;5.40;1.00;;;;;;5057377;28;20271;-76
2023/12/22 05:33:57;;;;;;;14.73;3.33;;;5.30;1.00;;;;;;5062225;28;20220;-73
2023/12/22 05:36:26;;;;;;;13.17;3.13;;;5.40;1.00;;;;;;5061066;28;20236;-73
2023/12/22 05:38:55;;;;;;;16.00;3.73;;;5.40;1.00;;;;;;5056222;28;20224;-73
2023/12/22 05:41:23;;;;;;;12.80;3.07;;;5.40;1.00;;;;;;5056930;28;20369;-74
2023/12/22 05:43:52;;;;;;;15.93;3.30;;;5.40;1.00;;;;;;5060963;28;20218;-75
2023/12/22 05:46:22;;;;;;;15.23;4.23;;;5.30;1.00;;;;;;5058719;28;20225;-77
2023/12/22 05:48:51;;;;;;;16.67;3.60;;;5.30;1.00;;;;;;5060059;28;20313;-75
2023/12/22 05:51:24;;;;;;;20.80;3.87;;;5.30;1.00;;;;;;5060899;28;20311;-76
2023/12/22 05:53:54;;;;;;;14.80;3.23;;;5.30;1.00;;;;;;5055532;28;20735;-75
2023/12/22 05:56:22;;;;;;;17.97;3.63;;;5.40;1.00;;;;;;5060901;28;20216;-76
2023/12/22 05:58:51;;;;;;;16.10;4.17;;;5.30;1.00;;;;;;5058762;28;20231;-76
2023/12/22 06:01:20;;;;;;;17.33;3.93;;;5.30;1.00;;;;;;5060759;28;20227;-75
2023/12/22 06:03:52;;;;;;;24.43;3.73;;;5.30;1.00;;;;;;5064109;28;20299;-76
2023/12/22 06:06:21;;;;;;;18.47;3.90;;;5.30;1.00;;;;;;5061489;28;20712;-72
2023/12/22 06:08:50;;;;;;;13.83;3.70;;;5.30;1.00;;;;;;5061507;28;20252;-74
2023/12/22 06:11:19;;;;;;;17.73;4.10;;;5.40;1.00;;;;;;5063899;28;20242;-75
2023/12/22 06:13:47;;;;;;;16.60;3.90;;;5.40;1.00;;;;;;5062699;28;20220;-74
2023/12/22 06:16:18;;;;;;;16.30;3.77;;;5.40;1.00;;;;;;5059092;28;20774;-75
2023/12/22 06:18:47;;;;;;;16.33;3.53;;;5.50;1.00;;;;;;5072709;28;20214;-75
2023/12/22 06:21:17;;;;;;;17.83;3.53;;;5.50;1.00;;;;;;5057346;28;20221;-75
2023/12/22 06:23:45;;;;;;;13.80;3.23;;;5.50;1.00;;;;;;5057892;28;20842;-75
2023/12/22 06:26:14;;;;;;;13.47;3.73;;;5.40;1.00;;;;;;5057479;28;20225;-75
2023/12/22 06:28:43;;;;;;;18.13;3.70;;;5.50;1.00;;;;;;5063044;28;20221;-74
2023/12/22 06:31:19;;;;;;;14.73;3.87;;;5.40;1.00;;;;;;5054683;28;20230;-75
2023/12/22 06:33:49;;;;;;;20.43;4.37;;;5.40;1.00;;;;;;5064630;28;20232;-75
2023/12/22 06:36:23;;;;;;;16.53;3.60;;;5.40;1.00;;;;;;5061408;28;20252;-74
2023/12/22 06:38:53;;;;;;;19.27;4.03;;;5.50;1.00;;;;;;5059712;28;20217;-74
2023/12/22 06:41:23;;;;;;;18.33;3.63;;;5.50;1.00;;;;;;5059797;28;20243;-75
2023/12/22 06:43:57;;;;;;;13.97;3.23;;;5.50;1.00;;;;;;5058683;28;20277;-75
2023/12/22 06:46:26;;;;;;;22.87;3.63;;;5.60;1.00;;;;;;5059711;28;21051;-78
2023/12/22 06:48:57;;;;;;;14.70;2.90;;;5.60;1.00;;;;;;5058007;28;20225;-77
2023/12/22 06:51:30;;;;;;;17.07;3.70;;;5.50;1.00;;;;;;5078148;28;20233;-77
2023/12/22 06:54:00;;;;;;;16.77;2.67;;;5.60;1.00;;;;;;5064773;28;20220;-77
2023/12/22 06:56:31;;;;;;;16.53;3.17;;;5.60;1.00;;;;;;5060529;28;20233;-75
2023/12/22 06:59:00;;;;;;;16.13;3.20;;;5.70;1.00;;;;;;5057858;28;20303;-74
2023/12/22 07:01:30;;;;;;;13.20;2.60;;;5.70;1.00;;;;;;5062963;28;20258;-75
2023/12/22 07:04:01;;;;;;;13.57;3.20;;;5.60;1.00;;;;;;5082368;28;20223;-76
2023/12/22 07:06:32;;;;;;;19.77;3.13;;;5.50;1.00;;;;;;5060786;28;20228;-74
2023/12/22 07:09:29;;;;;;;15.93;2.97;;;5.60;1.00;;;;;;5080849;28;20224;-75
2023/12/22 07:11:58;;;;;;;20.23;3.30;;;5.50;1.00;;;;;;5057806;28;20234;-77
2023/12/22 07:14:27;;;;;;;20.57;3.83;;;5.50;1.00;;;;;;5059284;28;20240;-82
2023/12/22 07:16:57;;;;;;;12.53;2.63;;;5.50;1.00;;;;;;5059225;28;20230;-77
2023/12/22 07:19:26;;;;;;;16.23;3.37;;;5.50;1.00;;;;;;5076708;28;20271;-73
2023/12/22 07:21:56;;;;;;;15.23;3.67;;;5.50;1.00;;;;;;5059826;28;20308;-75
2023/12/22 07:24:25;;;;;;;16.27;3.33;;;5.60;1.00;;;;;;5082524;28;20232;-74
2023/12/22 07:26:53;;;;;;;16.87;3.63;;;5.50;1.00;;;;;;5059680;28;20736;-77
2023/12/22 07:29:22;;;;;;;17.13;3.93;;;5.50;1.00;;;;;;5060448;28;20237;-77
2023/12/22 07:31:52;;;;;;;13.70;3.17;;;5.60;1.00;;;;;;5058982;28;20295;-77
2023/12/22 07:34:22;;;;;;;14.27;3.27;;;5.50;1.00;;;;;;5056069;28;20228;-77
2023/12/22 07:36:53;;;;;;;20.27;3.23;;;5.70;1.00;;;;;;5062071;28;20229;-77
2023/12/22 07:39:35;;;;;;;13.53;2.80;;;5.70;1.00;;;;;;5061532;28;20216;-77
2023/12/22 07:42:06;;;;;;;15.03;3.20;;;5.60;1.00;;;;;;5080903;28;20228;-78
2023/12/22 07:44:35;;;;;;;18.73;4.77;;;5.50;1.00;;;;;;5061719;28;20307;-77
2023/12/22 07:47:04;;;;;;;15.47;3.80;;;5.50;1.00;;;;;;5060181;28;20228;-77
2023/12/22 07:49:33;;;;;;;13.70;4.13;;;5.50;1.00;;;;;;5073202;28;20234;-77
2023/12/22 07:52:02;;;;;;;13.70;2.97;;;5.40;1.00;;;;;;5059348;28;20272;-76
2023/12/22 07:54:31;;;;;;;10.57;3.20;;;5.20;1.00;;;;;;5061134;28;20234;-78
2023/12/22 07:57:01;;;;;;;14.33;3.00;;;5.10;1.00;;;;;;5063965;28;20247;-77
2023/12/22 07:59:30;;;;;;;17.90;3.00;;;5.10;1.00;;;;;;5063864;28;20792;-77
2023/12/22 08:01:59;;;;;;;16.80;2.67;;;5.20;1.00;;;;;;5061226;28;20224;-77
2023/12/22 08:04:29;;;;;;;21.30;3.23;;;5.20;1.00;;;;;;5054619;28;20219;-77
2023/12/22 08:06:58;;;;;;;13.87;2.90;;;5.10;1.00;;;;;;5055590;28;20224;-79
2023/12/22 08:09:27;;;;;;;10.50;2.73;;;5.20;1.00;;;;;;5059847;28;20599;-82
2023/12/22 08:11:56;;;;;;;14.43;2.70;;;5.30;1.00;;;;;;5061000;28;20224;-79
2023/12/22 08:14:26;;;;;;;14.53;2.60;;;5.20;1.00;;;;;;5063104;28;20247;-79
2023/12/22 08:16:55;;;;;;;18.20;3.33;;;5.20;1.00;;;;;;5057268;28;20231;-80
2023/12/22 08:19:25;;;;;;;10.90;2.70;;;5.30;1.00;;;;;;5056845;28;20240;-80
2023/12/22 08:21:58;;;;;;;13.17;2.90;;;5.30;1.00;;;;;;5075481;28;20229;-80
2023/12/22 08:24:30;;;;;;;14.37;2.90;;;5.30;1.00;;;;;;5056703;28;20251;-80
2023/12/22 08:26:59;;;;;;;18.80;3.23;;;5.30;1.00;;;;;;5050181;28;20239;-80
2023/12/22 08:29:30;;;;;;;13.73;4.27;;;5.20;1.00;;;;;;5059270;28;20231;-79
2023/12/22 08:32:01;;;;;;;15.07;3.30;;;5.20;1.00;;;;;;5052154;28;20299;-79
2023/12/22 08:34:30;;;;;;;15.63;2.87;;;5.20;1.00;;;;;;5056553;28;20223;-77
2023/12/22 08:37:02;;;;;;;13.67;2.93;;;5.20;1.00;;;;;;5069936;28;20646;-78
2023/12/22 08:39:31;;;;;;;16.33;3.70;;;5.20;1.00;;;;;;5062769;28;20226;-80
2023/12/22 08:42:00;;;;;;;17.13;2.90;;;5.20;1.00;;;;;;5057179;28;20242;-80
2023/12/22 08:44:31;;;;;;;16.43;3.23;;;5.20;1.00;;;;;;5076042;28;20251;-81
2023/12/22 08:47:00;;;;;;;15.90;2.63;;;5.00;1.00;;;;;;5061429;28;20312;-81
2023/12/22 08:49:29;;;;;;;12.73;3.07;;;5.20;1.00;;;;;;5060503;28;20227;-79
2023/12/22 08:51:59;;;;;;;11.03;2.60;;;5.20;1.00;;;;;;5074492;28;20223;-80
2023/12/22 08:54:27;;;;;;;17.30;4.30;;;5.20;1.00;;;;;;5071597;28;20277;-78
2023/12/22 08:56:56;;;;;;;14.73;2.97;;;5.20;1.00;;;;;;5055489;28;20281;-79
2023/12/22 08:59:24;;;;;;;10.47;2.93;;;5.20;1.00;;;;;;5069322;28;20303;-79
2023/12/22 09:01:55;;;;;;;15.53;2.90;;;5.20;1.00;;;;;;5057513;28;20237;-79
2023/12/22 09:04:23;;;;;;;12.47;3.07;;;5.30;1.00;;;;;;5054031;28;20223;-79
2023/12/22 09:06:53;;;;;;;16.73;3.43;;;5.20;1.00;;;;;;5054257;28;20341;-77
2023/12/22 09:09:23;;;;;;;15.13;2.90;;;5.20;1.00;;;;;;5055113;28;20228;-78
2023/12/22 09:11:52;;;;;;;13.57;2.97;;;5.30;1.00;;;;;;5085276;28;20224;-77
2023/12/22 09:14:22;;;;;;;13.57;3.40;;;5.40;1.00;;;;;;5048495;28;20273;-78
2023/12/22 09:16:50;;;;;;;17.43;3.20;;;5.50;1.00;;;;;;5055260;28;20228;-76
2023/12/22 09:19:21;;;;;;;16.33;3.47;;;5.70;1.00;;;;;;5054712;28;20228;-76
2023/12/22 09:21:50;;;;;;;12.47;2.60;;;5.70;1.00;;;;;;5053359;28;20756;-74
2023/12/22 09:24:18;;;;;;;12.53;3.17;;;5.80;1.00;;;;;;5057903;28;20228;-75
2023/12/22 09:26:47;;;;;;;14.73;3.43;;;5.70;1.00;;;;;;5055007;28;20217;-75
2023/12/22 09:29:16;;;;;;;16.17;3.33;;;5.70;1.00;;;;;;5049195;28;20867;-75
2023/12/22 09:31:45;;;;;;;14.33;3.40;;;5.70;1.00;;;;;;5056945;28;20224;-75
2023/12/22 09:34:14;;;;;;;17.13;3.63;;;5.70;1.00;;;;;;5057968;28;20453;-77
2023/12/22 09:36:44;;;;;;;15.03;3.13;;;5.70;1.00;;;;;;5056241;28;20245;-75
2023/12/22 09:39:16;;;;;;;17.27;3.37;;;5.80;1.00;;;;;;5053319;28;20223;-75
2023/12/22 09:41:49;;;;;;;20.40;3.10;;;5.90;1.00;;;;;;5059201;28;20228;-80
2023/12/22 09:44:20;;;;;;;16.00;3.07;;;5.90;1.00;;;;;;5058719;28;20220;-74
2023/12/22 09:46:50;;;;;;;14.10;2.63;;;;;;;;;;5061231;28;20305;-74
2023/12/22 09:49:21;;;;;;;13.67;3.37;;;6.00;1.00;;;;;;5060402;28;20386;-74
2023/12/22 09:51:52;;;;;;;16.90;3.00;;;5.90;1.00;;;;;;5058118;28;20233;-76
2023/12/22 09:54:21;;;;;;;10.03;2.90;;;6.10;1.00;;;;;;5059096;28;20881;-76
2023/12/22 09:56:52;;;;;;;13.93;3.30;;;6.10;1.00;;;;;;5063619;28;20322;-78
2023/12/22 09:59:22;;;;;;;16.60;3.30;;;6.10;1.00;;;;;;5059278;28;20209;-79
2023/12/22 10:01:56;;;;;;;19.17;3.53;;;6.00;1.00;;;;;;5056781;28;20231;-82
2023/12/22 10:04:25;;;;;;;13.80;3.83;;;6.10;1.00;;;;;;5060139;28;21121;-77
2023/12/22 10:07:00;;;;;;;8.77;2.67;;;6.00;1.00;;;;;;5060227;28;20221;-77
2023/12/22 10:09:30;;;;;;;9.00;2.80;;;6.00;1.00;;;;;;5061838;28;20236;-78
2023/12/22 10:12:00;;;;;;;12.83;2.80;;;5.90;1.00;;;;;;5058988;28;20220;-76
2023/12/22 10:14:31;;;;;;;14.80;3.23;;;5.80;1.00;;;;;;5056170;28;20254;-80
2023/12/22 10:17:00;;;;;;;6.77;1.87;;;5.70;1.00;;;;;;5053998;28;20221;-74
2023/12/22 10:19:29;;;;;;;5.50;1.70;;;5.40;1.00;;;;;;5063547;28;20228;-78
2023/12/22 10:21:59;;;;;;;5.73;1.23;;;5.00;1.00;;;;;;5062763;28;20243;-78
2023/12/22 10:24:42;;;;;;;4.40;0.80;;;4.50;1.00;;;;;;5065250;28;20307;-75
2023/12/22 10:27:12;;;;;;;3.17;1.00;;;4.10;1.00;;;;;;5064969;28;20220;-78
2023/12/22 10:29:42;;;;;;;3.00;0.90;;;3.60;1.00;;;;;;5053974;28;20225;-74
2023/12/22 10:32:10;;;;;;;3.13;1.03;;;2.80;1.00;;;;;;5059644;28;20220;-72
2023/12/22 10:34:39;;;;;;;3.67;1.00;;;2.80;1.00;;;;;;5051199;28;20721;-75
2023/12/22 10:37:12;;;;;;;2.73;1.00;;;2.70;1.00;;;;;;5057038;28;20232;-71
2023/12/22 10:39:41;;;;;;;4.33;1.00;;;2.70;1.00;;;;;;5062614;28;20343;-74
2023/12/22 10:42:11;;;;;;;2.77;0.80;;;2.50;1.00;;;;;;5053010;28;20302;-75
2023/12/22 10:44:42;;;;;;;2.33;0.60;;;2.50;1.00;;;;;;5060224;28;20213;-74
2023/12/22 10:51:32;;;;;;;14.03;9.77;;;2.60;1.00;;;;;;5058170;28;20995;-75
2023/12/22 10:54:05;;;;;;;5.40;3.67;;;2.50;1.00;;;;;;5059042;28;20224;-74
2023/12/22 10:56:35;;;;;;;3.67;1.10;;;2.70;1.00;;;;;;5061446;28;20240;-74
2023/12/22 10:59:04;;;;;;;3.00;0.80;;;2.80;1.00;;;;;;5080637;28;20255;-75
2023/12/22 11:01:34;;;;;;;2.30;0.70;;;2.60;1.00;;;;;;5062311;28;20224;-75
2023/12/22 11:04:04;;;;;;;2.27;1.00;;;2.80;1.00;;;;;;5066655;28;20224;-74
2023/12/22 11:06:36;;;;;;;1.63;0.93;;;2.90;1.00;;;;;;5056061;28;20230;-75
2023/12/22 11:09:09;;;;;;;4.37;1.00;;;3.00;1.00;;;;;;5063351;28;20293;-75
2023/12/22 11:11:40;;;;;;;5.50;1.60;;;3.10;1.00;;;;;;5060377;28;20266;-74
2023/12/22 11:14:09;;;;;;;5.60;1.30;;;3.30;1.00;;;;;;5059406;28;20228;-76
2023/12/22 11:16:39;;;;;;;5.20;1.50;;;3.30;1.00;;;;;;5056460;28;20224;-75
2023/12/22 11:19:08;;;;;;;10.67;1.70;;;3.10;1.00;;;;;;5058872;28;20228;-75
2023/12/22 11:21:39;;;;;;;7.20;1.53;;;3.10;1.00;;;;;;5061312;28;20238;-75
2023/12/22 11:24:12;;;;;;;9.53;1.87;;;3.10;1.00;;;;;;5057436;28;20267;-74
2023/12/22 11:26:43;;;;;;;7.77;2.20;;;3.30;1.00;;;;;;5053329;28;20263;-75
2023/12/22 11:29:13;;;;;;;7.77;2.10;;;3.30;1.00;;;;;;5056018;28;20290;-76
2023/12/22 11:31:45;;;;;;;6.30;1.97;;;3.50;1.00;;;;;;5060554;28;20212;-76
2023/12/22 11:34:15;;;;;;;10.13;2.37;;;3.60;1.00;;;;;;5057504;28;20228;-76
2023/12/22 11:36:48;;;;;;;7.93;2.57;;;3.50;1.00;;;;;;5056369;28;20232;-75
2023/12/22 11:39:18;;;;;;;11.73;2.97;;;3.50;1.00;;;;;;5060842;28;20227;-75
2023/12/22 11:41:49;;;;;;;8.60;2.43;;;3.50;1.00;;;;;;5091343;28;20281;-75
2023/12/22 11:44:18;;;;;;;9.77;2.67;;;3.60;1.00;;;;;;5059820;28;20725;-76
2023/12/22 11:46:47;;;;;;;6.07;1.90;;;3.70;1.00;;;;;;5085636;28;20884;-76
2023/12/22 11:49:16;;;;;;;7.40;1.97;;;3.60;1.00;;;;;;5055846;28;20256;-76
2023/12/22 11:51:44;;;;;;;7.53;2.43;;;3.60;1.00;;;;;;5060201;28;20235;-76
2023/12/22 11:54:48;;;;;;;8.47;2.40;;;3.70;1.00;;;;;;5057480;28;20288;-75
2023/12/22 11:57:37;;;;;;;8.47;3.07;;;3.80;1.00;;;;;;5027110;28;20228;-75
2023/12/22 12:00:10;;;;;;;7.80;2.60;;;3.90;1.00;;;;;;5052308;28;20672;-76
2023/12/22 12:02:41;;;;;;;7.47;2.63;;;3.90;1.00;;;;;;5059640;28;20394;-73
2023/12/22 12:05:11;;;;;;;12.37;3.50;;;4.00;1.00;;;;;;5060271;28;20239;-75
2023/12/22 12:07:44;;;;;;;13.70;2.93;;;4.00;1.00;;;;;;5061000;28;20392;-76
2023/12/22 12:10:51;;;;;;;8.33;3.00;;;3.90;1.00;;;;;;5061819;28;20303;-76
2023/12/22 12:13:25;;;;;;;7.87;3.07;;;4.10;1.00;;;;;;5054963;28;20231;-75
2023/12/22 12:15:56;;;;;;;5.83;2.87;;;4.10;1.00;;;;;;5053268;28;20238;-75
2023/12/22 12:18:25;;;;;;;8.80;3.10;;;4.20;1.00;;;;;;5058673;28;20718;-73
2023/12/22 12:20:54;;;;;;;8.13;3.30;;;4.20;1.00;;;;;;5057370;28;20225;-77
2023/12/22 12:23:24;;;;;;;6.87;3.00;;;4.10;1.00;;;;;;5057794;28;20307;-74
2023/12/22 12:25:56;;;;;;;7.70;2.73;;;4.10;1.00;;;;;;5062700;28;20219;-74
2023/12/22 12:28:30;;;;;;;8.17;2.90;;;4.20;1.00;;;;;;5066495;28;20749;-76
2023/12/22 12:31:00;;;;;;;9.73;2.70;;;4.20;1.00;;;;;;5060299;28;20311;-75
2023/12/22 12:33:30;;;;;;;9.87;2.90;;;4.20;1.00;;;;;;5054074;28;20220;-75
2023/12/22 12:36:00;;;;;;;7.07;2.53;;;4.20;1.00;;;;;;5056134;28;20212;-74
2023/12/22 12:38:39;;;;;;;8.47;2.63;;;4.20;1.00;;;;;;5051390;28;20235;-74
2023/12/22 12:41:11;;;;;;;6.30;2.47;;;4.10;1.00;;;;;;5044585;28;20318;-76
2023/12/22 12:43:43;;;;;;;9.83;2.77;;;4.00;1.00;;;;;;5058463;28;20232;-73
2023/12/22 12:46:12;;;;;;;6.80;2.50;;;4.00;1.00;;;;;;5055711;28;20654;-75
2023/12/22 12:48:41;;;;;;;9.57;2.60;;;4.00;1.00;;;;;;5059766;28;20216;-75
2023/12/22 12:51:09;;;;;;;6.83;2.80;;;4.00;1.00;;;;;;5057464;28;20232;-73
2023/12/22 12:53:38;;;;;;;9.23;2.37;;;3.80;1.00;;;;;;5056416;28;20220;-74
2023/12/22 12:56:09;;;;;;;8.53;2.70;;;3.80;1.00;;;;;;5058355;28;20722;-73
2023/12/22 12:58:39;;;;;;;8.93;2.47;;;3.80;1.00;;;;;;5055233;28;20217;-77
2023/12/22 13:01:10;;;;;;;6.57;2.10;;;3.80;1.00;;;;;;5055548;28;20217;-75
2023/12/22 13:03:54;;;;;;;8.47;2.80;;;3.80;1.00;;;;;;5054365;28;20227;-74
2023/12/22 13:06:23;;;;;;;7.00;2.53;;;3.80;1.00;;;;;;5055751;28;20855;-74
2023/12/22 13:08:52;;;;;;;10.73;3.00;;;3.80;1.00;;;;;;5056330;28;20240;-73
2023/12/22 13:11:25;;;;;;;5.53;2.40;;;3.80;1.00;;;;;;5063328;28;20231;-73
2023/12/22 13:13:54;;;;;;;6.77;2.60;;;3.80;1.00;;;;;;5063008;28;20596;-74
2023/12/22 13:16:26;;;;;;;5.83;2.60;;;3.80;1.00;;;;;;5055351;28;20305;-74
2023/12/22 13:18:55;;;;;;;6.50;2.50;;;3.80;1.00;;;;;;5062445;28;20231;-74